CheckWX is a tool to help pilots better visualize weather data.  It is not intended as a substitute for an official pre-flight weather briefing.

18:01:13 UTC

KGRI METAR
Central Nebraska Regional Airport
Grand Island, Nebraska, USA
Current

8 mins ago

KGRI 171753Z 33017G25KT 5SM -SN OVC020 M07/M11 A2996 RMK AO2 UPE30SNB30 SLP180 P0000 60001 T10671111 11067 21122 53024
Observed
Feb-17 @ 17:53 UTC
Wind
  • 330° at 17 KTS
  • Gusting to 25 KTS
Visibility
5 SM
Flight Rules
MVFR
Conditions
Light Snow
Cloud Levels
  • Overcast at 2,000' AGL
Temperature
-7°C / 19°F
Dewpoint
-11°C / 12°F
Humidity
73%
Altimeter
29.96" Hg
Pressure
1018 hPa
Current Rain
0.01"
Previous

37 mins ago

KGRI 171724Z 32018KT 6SM UP FEW017 OVC026 M07/M11 A2995 RMK AO2 P0000 T10721111
Observed
Feb-17 @ 17:24 UTC
Wind
  • 320° at 18 KTS
Visibility
6 SM
Flight Rules
MVFR
Conditions
Unknown precipitation
Cloud Levels
  • Few at 1,700' AGL
  • Overcast at 2,600' AGL
Temperature
-7°C / 19°F
Dewpoint
-11°C / 12°F
Humidity
73%
Altimeter
29.95" Hg
Pressure
1014.22 hPa
Current Rain
0.01"
Previous

1 hour ago

KGRI 171653Z 33016KT 5SM UP OVC033 M07/M11 A2993 RMK AO2 UPB53SNE53 SLP170 P0001 T10721111
Observed
Feb-17 @ 16:53 UTC
Wind
  • 330° at 16 KTS
Visibility
5 SM
Flight Rules
MVFR
Conditions
Unknown precipitation
Cloud Levels
  • Overcast at 3,300' AGL
Temperature
-7°C / 19°F
Dewpoint
-11°C / 12°F
Humidity
73%
Altimeter
29.93" Hg
Pressure
1017 hPa
Current Rain
0.01"